<?xml version="1.0" encoding="UTF-8" standalone="no" ?>
<gpx xmlns="http://www.topografix.com/GPX/1/1" xmlns:xsi="http://www.w3.org/2001/XMLSchema-instance" xsi:schemaLocation="http://www.topografix.com/GPX/1/1 http://www.topografix.com/GPX/1/1/gpx.xsd" version="1.1" creator="VisuGPX - https://www.visugpx.com">
  <metadata>
    <name>13039705-Enea Uhaina</name>
  </metadata>
  <trk>
    <name><![CDATA[13039705-Enea Uhaina]]></name>
    <trkseg>
      <trkpt lat="45.72034" lon="3.01415">
        <ele>886</ele>
        <time>2021-06-23T07:22:34Z</time>
      </trkpt>
      <trkpt lat="45.71979" lon="3.01382">
        <ele>887</ele>
        <time>2021-06-23T07:23:04Z</time>
      </trkpt>
      <trkpt lat="45.71999" lon="3.01346">
        <ele>888</ele>
        <time>2021-06-23T07:23:20Z</time>
      </trkpt>
      <trkpt lat="45.72016" lon="3.01282">
        <ele>889</ele>
        <time>2021-06-23T07:23:44Z</time>
      </trkpt>
      <trkpt lat="45.7202" lon="3.01257">
        <ele>890</ele>
        <time>2021-06-23T07:23:53Z</time>
      </trkpt>
      <trkpt lat="45.72029" lon="3.01195">
        <ele>892</ele>
        <time>2021-06-23T07:24:15Z</time>
      </trkpt>
      <trkpt lat="45.72026" lon="3.01139">
        <ele>893</ele>
        <time>2021-06-23T07:24:35Z</time>
      </trkpt>
      <trkpt lat="45.72028" lon="3.01119">
        <ele>893</ele>
        <time>2021-06-23T07:24:42Z</time>
      </trkpt>
      <trkpt lat="45.72035" lon="3.01105">
        <ele>893</ele>
        <time>2021-06-23T07:24:48Z</time>
      </trkpt>
      <trkpt lat="45.72052" lon="3.01101">
        <ele>893</ele>
        <time>2021-06-23T07:24:56Z</time>
      </trkpt>
      <trkpt lat="45.72064" lon="3.0109">
        <ele>894</ele>
        <time>2021-06-23T07:25:03Z</time>
      </trkpt>
      <trkpt lat="45.72078" lon="3.01062">
        <ele>894</ele>
        <time>2021-06-23T07:25:15Z</time>
      </trkpt>
      <trkpt lat="45.7209" lon="3.01039">
        <ele>894</ele>
        <time>2021-06-23T07:25:25Z</time>
      </trkpt>
      <trkpt lat="45.72109" lon="3.01006">
        <ele>895</ele>
        <time>2021-06-23T07:25:40Z</time>
      </trkpt>
      <trkpt lat="45.72131" lon="3.00949">
        <ele>897</ele>
        <time>2021-06-23T07:26:03Z</time>
      </trkpt>
      <trkpt lat="45.72146" lon="3.00903">
        <ele>899</ele>
        <time>2021-06-23T07:26:21Z</time>
      </trkpt>
      <trkpt lat="45.72159" lon="3.00858">
        <ele>902</ele>
        <time>2021-06-23T07:26:38Z</time>
      </trkpt>
      <trkpt lat="45.72174" lon="3.00801">
        <ele>904</ele>
        <time>2021-06-23T07:26:59Z</time>
      </trkpt>
      <trkpt lat="45.72203" lon="3.00738">
        <ele>905</ele>
        <time>2021-06-23T07:27:26Z</time>
      </trkpt>
      <trkpt lat="45.72218" lon="3.00699">
        <ele>906</ele>
        <time>2021-06-23T07:27:41Z</time>
      </trkpt>
      <trkpt lat="45.72236" lon="3.00658">
        <ele>908</ele>
        <time>2021-06-23T07:27:58Z</time>
      </trkpt>
      <trkpt lat="45.72253" lon="3.00614">
        <ele>911</ele>
        <time>2021-06-23T07:28:16Z</time>
      </trkpt>
      <trkpt lat="45.72266" lon="3.0058">
        <ele>914</ele>
        <time>2021-06-23T07:28:29Z</time>
      </trkpt>
      <trkpt lat="45.72279" lon="3.00545">
        <ele>917</ele>
        <time>2021-06-23T07:28:43Z</time>
      </trkpt>
      <trkpt lat="45.72293" lon="3.00514">
        <ele>920</ele>
        <time>2021-06-23T07:28:56Z</time>
      </trkpt>
      <trkpt lat="45.72312" lon="3.00485">
        <ele>925</ele>
        <time>2021-06-23T07:29:10Z</time>
      </trkpt>
      <trkpt lat="45.72341" lon="3.00458">
        <ele>931</ele>
        <time>2021-06-23T07:29:27Z</time>
      </trkpt>
      <trkpt lat="45.72374" lon="3.00435">
        <ele>934</ele>
        <time>2021-06-23T07:29:45Z</time>
      </trkpt>
      <trkpt lat="45.72401" lon="3.00416">
        <ele>936</ele>
        <time>2021-06-23T07:30:00Z</time>
      </trkpt>
      <trkpt lat="45.72413" lon="3.00409">
        <ele>936</ele>
        <time>2021-06-23T07:30:07Z</time>
      </trkpt>
      <trkpt lat="45.72448" lon="3.00371">
        <ele>940</ele>
        <time>2021-06-23T07:30:29Z</time>
      </trkpt>
      <trkpt lat="45.72468" lon="3.00327">
        <ele>943</ele>
        <time>2021-06-23T07:30:47Z</time>
      </trkpt>
      <trkpt lat="45.72487" lon="3.00284">
        <ele>945</ele>
        <time>2021-06-23T07:31:05Z</time>
      </trkpt>
      <trkpt lat="45.72503" lon="3.00248">
        <ele>947</ele>
        <time>2021-06-23T07:31:20Z</time>
      </trkpt>
      <trkpt lat="45.7252" lon="3.00197">
        <ele>954</ele>
        <time>2021-06-23T07:31:40Z</time>
      </trkpt>
      <trkpt lat="45.72526" lon="3.00182">
        <ele>956</ele>
        <time>2021-06-23T07:31:46Z</time>
      </trkpt>
      <trkpt lat="45.72537" lon="3.00162">
        <ele>959</ele>
        <time>2021-06-23T07:31:55Z</time>
      </trkpt>
      <trkpt lat="45.7255" lon="3.0015">
        <ele>961</ele>
        <time>2021-06-23T07:32:02Z</time>
      </trkpt>
      <trkpt lat="45.72566" lon="3.0014">
        <ele>963</ele>
        <time>2021-06-23T07:32:11Z</time>
      </trkpt>
      <trkpt lat="45.72584" lon="3.00132">
        <ele>964</ele>
        <time>2021-06-23T07:32:21Z</time>
      </trkpt>
      <trkpt lat="45.72585" lon="3.00112">
        <ele>967</ele>
        <time>2021-06-23T07:32:28Z</time>
      </trkpt>
      <trkpt lat="45.7259" lon="3.00082">
        <ele>971</ele>
        <time>2021-06-23T07:32:38Z</time>
      </trkpt>
      <trkpt lat="45.72597" lon="3.00028">
        <ele>972</ele>
        <time>2021-06-23T07:32:58Z</time>
      </trkpt>
      <trkpt lat="45.72602" lon="3">
        <ele>973</ele>
        <time>2021-06-23T07:33:08Z</time>
      </trkpt>
      <trkpt lat="45.72605" lon="2.99952">
        <ele>968</ele>
        <time>2021-06-23T07:33:24Z</time>
      </trkpt>
      <trkpt lat="45.72621" lon="2.99883">
        <ele>962</ele>
        <time>2021-06-23T07:33:50Z</time>
      </trkpt>
      <trkpt lat="45.72627" lon="2.99852">
        <ele>959</ele>
        <time>2021-06-23T07:34:01Z</time>
      </trkpt>
      <trkpt lat="45.72638" lon="2.99802">
        <ele>956</ele>
        <time>2021-06-23T07:34:19Z</time>
      </trkpt>
      <trkpt lat="45.72647" lon="2.99758">
        <ele>953</ele>
        <time>2021-06-23T07:34:35Z</time>
      </trkpt>
      <trkpt lat="45.72652" lon="2.99717">
        <ele>951</ele>
        <time>2021-06-23T07:34:50Z</time>
      </trkpt>
      <trkpt lat="45.72657" lon="2.9967">
        <ele>948</ele>
        <time>2021-06-23T07:35:07Z</time>
      </trkpt>
      <trkpt lat="45.72666" lon="2.9961">
        <ele>944</ele>
        <time>2021-06-23T07:35:28Z</time>
      </trkpt>
      <trkpt lat="45.72669" lon="2.99586">
        <ele>941</ele>
        <time>2021-06-23T07:35:37Z</time>
      </trkpt>
      <trkpt lat="45.72675" lon="2.99546">
        <ele>939</ele>
        <time>2021-06-23T07:35:51Z</time>
      </trkpt>
      <trkpt lat="45.72678" lon="2.99521">
        <ele>937</ele>
        <time>2021-06-23T07:36:00Z</time>
      </trkpt>
      <trkpt lat="45.72684" lon="2.99489">
        <ele>935</ele>
        <time>2021-06-23T07:36:11Z</time>
      </trkpt>
      <trkpt lat="45.72696" lon="2.99421">
        <ele>931</ele>
        <time>2021-06-23T07:36:36Z</time>
      </trkpt>
      <trkpt lat="45.72702" lon="2.9938">
        <ele>928</ele>
        <time>2021-06-23T07:36:50Z</time>
      </trkpt>
      <trkpt lat="45.72706" lon="2.99352">
        <ele>926</ele>
        <time>2021-06-23T07:37:00Z</time>
      </trkpt>
      <trkpt lat="45.72712" lon="2.99317">
        <ele>923</ele>
        <time>2021-06-23T07:37:13Z</time>
      </trkpt>
      <trkpt lat="45.72717" lon="2.99282">
        <ele>921</ele>
        <time>2021-06-23T07:37:25Z</time>
      </trkpt>
      <trkpt lat="45.72721" lon="2.99243">
        <ele>918</ele>
        <time>2021-06-23T07:37:39Z</time>
      </trkpt>
      <trkpt lat="45.72725" lon="2.99219">
        <ele>917</ele>
        <time>2021-06-23T07:37:48Z</time>
      </trkpt>
      <trkpt lat="45.72733" lon="2.99216">
        <ele>917</ele>
        <time>2021-06-23T07:37:52Z</time>
      </trkpt>
      <trkpt lat="45.72744" lon="2.99169">
        <ele>915</ele>
        <time>2021-06-23T07:38:09Z</time>
      </trkpt>
      <trkpt lat="45.72758" lon="2.99155">
        <ele>916</ele>
        <time>2021-06-23T07:38:18Z</time>
      </trkpt>
      <trkpt lat="45.72763" lon="2.99163">
        <ele>917</ele>
        <time>2021-06-23T07:38:22Z</time>
      </trkpt>
      <trkpt lat="45.72772" lon="2.99168">
        <ele>919</ele>
        <time>2021-06-23T07:38:26Z</time>
      </trkpt>
      <trkpt lat="45.72782" lon="2.99175">
        <ele>921</ele>
        <time>2021-06-23T07:38:32Z</time>
      </trkpt>
      <trkpt lat="45.72791" lon="2.99183">
        <ele>923</ele>
        <time>2021-06-23T07:38:37Z</time>
      </trkpt>
      <trkpt lat="45.72799" lon="2.99188">
        <ele>924</ele>
        <time>2021-06-23T07:38:42Z</time>
      </trkpt>
      <trkpt lat="45.72806" lon="2.992">
        <ele>926</ele>
        <time>2021-06-23T07:38:47Z</time>
      </trkpt>
      <trkpt lat="45.72819" lon="2.99191">
        <ele>927</ele>
        <time>2021-06-23T07:38:54Z</time>
      </trkpt>
      <trkpt lat="45.72829" lon="2.99194">
        <ele>928</ele>
        <time>2021-06-23T07:38:59Z</time>
      </trkpt>
      <trkpt lat="45.72858" lon="2.99216">
        <ele>932</ele>
        <time>2021-06-23T07:39:16Z</time>
      </trkpt>
      <trkpt lat="45.72879" lon="2.99222">
        <ele>934</ele>
        <time>2021-06-23T07:39:27Z</time>
      </trkpt>
      <trkpt lat="45.72906" lon="2.99223">
        <ele>937</ele>
        <time>2021-06-23T07:39:40Z</time>
      </trkpt>
      <trkpt lat="45.72944" lon="2.9922">
        <ele>941</ele>
        <time>2021-06-23T07:39:59Z</time>
      </trkpt>
      <trkpt lat="45.72966" lon="2.99233">
        <ele>944</ele>
        <time>2021-06-23T07:40:11Z</time>
      </trkpt>
      <trkpt lat="45.73003" lon="2.99252">
        <ele>949</ele>
        <time>2021-06-23T07:40:31Z</time>
      </trkpt>
      <trkpt lat="45.73065" lon="2.99246">
        <ele>954</ele>
        <time>2021-06-23T07:41:02Z</time>
      </trkpt>
      <trkpt lat="45.73076" lon="2.99245">
        <ele>955</ele>
        <time>2021-06-23T07:41:07Z</time>
      </trkpt>
      <trkpt lat="45.73114" lon="2.99253">
        <ele>961</ele>
        <time>2021-06-23T07:41:27Z</time>
      </trkpt>
      <trkpt lat="45.73135" lon="2.99272">
        <ele>967</ele>
        <time>2021-06-23T07:41:39Z</time>
      </trkpt>
      <trkpt lat="45.73154" lon="2.99306">
        <ele>975</ele>
        <time>2021-06-23T07:41:54Z</time>
      </trkpt>
      <trkpt lat="45.73182" lon="2.99342">
        <ele>983</ele>
        <time>2021-06-23T07:42:13Z</time>
      </trkpt>
      <trkpt lat="45.73192" lon="2.99356">
        <ele>985</ele>
        <time>2021-06-23T07:42:20Z</time>
      </trkpt>
      <trkpt lat="45.73203" lon="2.99374">
        <ele>988</ele>
        <time>2021-06-23T07:42:28Z</time>
      </trkpt>
      <trkpt lat="45.73237" lon="2.99408">
        <ele>993</ele>
        <time>2021-06-23T07:42:49Z</time>
      </trkpt>
      <trkpt lat="45.73253" lon="2.9939">
        <ele>991</ele>
        <time>2021-06-23T07:42:59Z</time>
      </trkpt>
      <trkpt lat="45.73292" lon="2.99359">
        <ele>992</ele>
        <time>2021-06-23T07:43:22Z</time>
      </trkpt>
      <trkpt lat="45.73316" lon="2.99313">
        <ele>992</ele>
        <time>2021-06-23T07:43:42Z</time>
      </trkpt>
      <trkpt lat="45.73328" lon="2.9929">
        <ele>993</ele>
        <time>2021-06-23T07:43:52Z</time>
      </trkpt>
      <trkpt lat="45.73342" lon="2.99255">
        <ele>994</ele>
        <time>2021-06-23T07:44:06Z</time>
      </trkpt>
      <trkpt lat="45.73361" lon="2.99201">
        <ele>995</ele>
        <time>2021-06-23T07:44:27Z</time>
      </trkpt>
      <trkpt lat="45.7339" lon="2.99106">
        <ele>997</ele>
        <time>2021-06-23T07:45:03Z</time>
      </trkpt>
      <trkpt lat="45.734" lon="2.99001">
        <ele>996</ele>
        <time>2021-06-23T07:45:40Z</time>
      </trkpt>
      <trkpt lat="45.73406" lon="2.98942">
        <ele>998</ele>
        <time>2021-06-23T07:46:01Z</time>
      </trkpt>
      <trkpt lat="45.73434" lon="2.987">
        <ele>1000</ele>
        <time>2021-06-23T07:47:27Z</time>
      </trkpt>
      <trkpt lat="45.73447" lon="2.98595">
        <ele>997</ele>
        <time>2021-06-23T07:48:04Z</time>
      </trkpt>
      <trkpt lat="45.73449" lon="2.98554">
        <ele>995</ele>
        <time>2021-06-23T07:48:18Z</time>
      </trkpt>
      <trkpt lat="45.73456" lon="2.98537">
        <ele>995</ele>
        <time>2021-06-23T07:48:25Z</time>
      </trkpt>
      <trkpt lat="45.73471" lon="2.98531">
        <ele>997</ele>
        <time>2021-06-23T07:48:33Z</time>
      </trkpt>
      <trkpt lat="45.73494" lon="2.98538">
        <ele>1001</ele>
        <time>2021-06-23T07:48:45Z</time>
      </trkpt>
      <trkpt lat="45.73528" lon="2.98548">
        <ele>1004</ele>
        <time>2021-06-23T07:49:02Z</time>
      </trkpt>
      <trkpt lat="45.73562" lon="2.98562">
        <ele>1006</ele>
        <time>2021-06-23T07:49:20Z</time>
      </trkpt>
      <trkpt lat="45.73607" lon="2.98583">
        <ele>1009</ele>
        <time>2021-06-23T07:49:44Z</time>
      </trkpt>
      <trkpt lat="45.73588" lon="2.98525">
        <ele>1004</ele>
        <time>2021-06-23T07:50:06Z</time>
      </trkpt>
      <trkpt lat="45.73574" lon="2.98485">
        <ele>1002</ele>
        <time>2021-06-23T07:50:22Z</time>
      </trkpt>
      <trkpt lat="45.73554" lon="2.98409">
        <ele>1004</ele>
        <time>2021-06-23T07:50:50Z</time>
      </trkpt>
      <trkpt lat="45.73532" lon="2.98329">
        <ele>1008</ele>
        <time>2021-06-23T07:51:20Z</time>
      </trkpt>
      <trkpt lat="45.73507" lon="2.9823">
        <ele>1009</ele>
        <time>2021-06-23T07:51:57Z</time>
      </trkpt>
      <trkpt lat="45.73484" lon="2.9816">
        <ele>1008</ele>
        <time>2021-06-23T07:52:24Z</time>
      </trkpt>
      <trkpt lat="45.73463" lon="2.98095">
        <ele>1008</ele>
        <time>2021-06-23T07:52:49Z</time>
      </trkpt>
      <trkpt lat="45.73448" lon="2.9805">
        <ele>1007</ele>
        <time>2021-06-23T07:53:06Z</time>
      </trkpt>
      <trkpt lat="45.73432" lon="2.97965">
        <ele>1007</ele>
        <time>2021-06-23T07:53:37Z</time>
      </trkpt>
      <trkpt lat="45.73418" lon="2.97893">
        <ele>1006</ele>
        <time>2021-06-23T07:54:03Z</time>
      </trkpt>
      <trkpt lat="45.73406" lon="2.97833">
        <ele>1003</ele>
        <time>2021-06-23T07:54:25Z</time>
      </trkpt>
      <trkpt lat="45.73393" lon="2.97759">
        <ele>1001</ele>
        <time>2021-06-23T07:54:51Z</time>
      </trkpt>
      <trkpt lat="45.73389" lon="2.97734">
        <ele>1001</ele>
        <time>2021-06-23T07:55:00Z</time>
      </trkpt>
      <trkpt lat="45.73378" lon="2.97612">
        <ele>999</ele>
        <time>2021-06-23T07:55:43Z</time>
      </trkpt>
      <trkpt lat="45.73371" lon="2.97534">
        <ele>996</ele>
        <time>2021-06-23T07:56:11Z</time>
      </trkpt>
      <trkpt lat="45.73359" lon="2.97481">
        <ele>994</ele>
        <time>2021-06-23T07:56:30Z</time>
      </trkpt>
      <trkpt lat="45.73331" lon="2.97408">
        <ele>990</ele>
        <time>2021-06-23T07:56:59Z</time>
      </trkpt>
      <trkpt lat="45.73307" lon="2.97345">
        <ele>984</ele>
        <time>2021-06-23T07:57:24Z</time>
      </trkpt>
      <trkpt lat="45.73292" lon="2.97296">
        <ele>981</ele>
        <time>2021-06-23T07:57:43Z</time>
      </trkpt>
      <trkpt lat="45.73272" lon="2.97229">
        <ele>979</ele>
        <time>2021-06-23T07:58:09Z</time>
      </trkpt>
      <trkpt lat="45.73265" lon="2.97206">
        <ele>978</ele>
        <time>2021-06-23T07:58:17Z</time>
      </trkpt>
      <trkpt lat="45.73262" lon="2.97191">
        <ele>978</ele>
        <time>2021-06-23T07:58:23Z</time>
      </trkpt>
      <trkpt lat="45.73258" lon="2.97176">
        <ele>978</ele>
        <time>2021-06-23T07:58:28Z</time>
      </trkpt>
      <trkpt lat="45.73245" lon="2.97151">
        <ele>979</ele>
        <time>2021-06-23T07:58:39Z</time>
      </trkpt>
      <trkpt lat="45.7324" lon="2.97131">
        <ele>980</ele>
        <time>2021-06-23T07:58:47Z</time>
      </trkpt>
      <trkpt lat="45.73236" lon="2.97119">
        <ele>980</ele>
        <time>2021-06-23T07:58:51Z</time>
      </trkpt>
      <trkpt lat="45.73222" lon="2.97092">
        <ele>981</ele>
        <time>2021-06-23T07:59:03Z</time>
      </trkpt>
      <trkpt lat="45.732" lon="2.97041">
        <ele>983</ele>
        <time>2021-06-23T07:59:24Z</time>
      </trkpt>
      <trkpt lat="45.73183" lon="2.97001">
        <ele>984</ele>
        <time>2021-06-23T07:59:40Z</time>
      </trkpt>
      <trkpt lat="45.73157" lon="2.96957">
        <ele>983</ele>
        <time>2021-06-23T08:00:01Z</time>
      </trkpt>
      <trkpt lat="45.73119" lon="2.96895">
        <ele>983</ele>
        <time>2021-06-23T08:00:29Z</time>
      </trkpt>
      <trkpt lat="45.73084" lon="2.96838">
        <ele>985</ele>
        <time>2021-06-23T08:00:56Z</time>
      </trkpt>
      <trkpt lat="45.73094" lon="2.96687">
        <ele>990</ele>
        <time>2021-06-23T08:01:49Z</time>
      </trkpt>
      <trkpt lat="45.73108" lon="2.96465">
        <ele>998</ele>
        <time>2021-06-23T08:03:07Z</time>
      </trkpt>
      <trkpt lat="45.73118" lon="2.96292">
        <ele>1011</ele>
        <time>2021-06-23T08:04:07Z</time>
      </trkpt>
      <trkpt lat="45.73127" lon="2.96187">
        <ele>1018</ele>
        <time>2021-06-23T08:04:44Z</time>
      </trkpt>
      <trkpt lat="45.73133" lon="2.96166">
        <ele>1019</ele>
        <time>2021-06-23T08:04:52Z</time>
      </trkpt>
      <trkpt lat="45.7322" lon="2.96222">
        <ele>1011</ele>
        <time>2021-06-23T08:05:40Z</time>
      </trkpt>
      <trkpt lat="45.73308" lon="2.96279">
        <ele>1006</ele>
        <time>2021-06-23T08:06:28Z</time>
      </trkpt>
      <trkpt lat="45.73367" lon="2.963">
        <ele>1005</ele>
        <time>2021-06-23T08:06:59Z</time>
      </trkpt>
      <trkpt lat="45.73389" lon="2.96314">
        <ele>1003</ele>
        <time>2021-06-23T08:07:11Z</time>
      </trkpt>
      <trkpt lat="45.73481" lon="2.96352">
        <ele>1001</ele>
        <time>2021-06-23T08:07:59Z</time>
      </trkpt>
      <trkpt lat="45.73594" lon="2.96414">
        <ele>999</ele>
        <time>2021-06-23T08:08:59Z</time>
      </trkpt>
      <trkpt lat="45.73679" lon="2.96462">
        <ele>996</ele>
        <time>2021-06-23T08:09:45Z</time>
      </trkpt>
      <trkpt lat="45.73721" lon="2.96501">
        <ele>995</ele>
        <time>2021-06-23T08:10:10Z</time>
      </trkpt>
      <trkpt lat="45.73795" lon="2.96555">
        <ele>993</ele>
        <time>2021-06-23T08:10:52Z</time>
      </trkpt>
      <trkpt lat="45.7389" lon="2.96592">
        <ele>990</ele>
        <time>2021-06-23T08:11:41Z</time>
      </trkpt>
      <trkpt lat="45.73944" lon="2.96583">
        <ele>987</ele>
        <time>2021-06-23T08:12:08Z</time>
      </trkpt>
      <trkpt lat="45.73965" lon="2.96606">
        <ele>984</ele>
        <time>2021-06-23T08:12:21Z</time>
      </trkpt>
      <trkpt lat="45.74023" lon="2.96625">
        <ele>980</ele>
        <time>2021-06-23T08:12:51Z</time>
      </trkpt>
      <trkpt lat="45.7402" lon="2.96654">
        <ele>979</ele>
        <time>2021-06-23T08:13:01Z</time>
      </trkpt>
      <trkpt lat="45.74009" lon="2.96693">
        <ele>980</ele>
        <time>2021-06-23T08:13:16Z</time>
      </trkpt>
      <trkpt lat="45.73999" lon="2.96741">
        <ele>980</ele>
        <time>2021-06-23T08:13:34Z</time>
      </trkpt>
      <trkpt lat="45.73992" lon="2.9679">
        <ele>981</ele>
        <time>2021-06-23T08:13:51Z</time>
      </trkpt>
      <trkpt lat="45.73975" lon="2.96863">
        <ele>983</ele>
        <time>2021-06-23T08:14:18Z</time>
      </trkpt>
      <trkpt lat="45.73943" lon="2.9692">
        <ele>985</ele>
        <time>2021-06-23T08:14:43Z</time>
      </trkpt>
      <trkpt lat="45.73925" lon="2.96932">
        <ele>984</ele>
        <time>2021-06-23T08:14:53Z</time>
      </trkpt>
      <trkpt lat="45.73927" lon="2.96938">
        <ele>984</ele>
        <time>2021-06-23T08:14:56Z</time>
      </trkpt>
      <trkpt lat="45.73923" lon="2.96954">
        <ele>983</ele>
        <time>2021-06-23T08:15:02Z</time>
      </trkpt>
      <trkpt lat="45.73916" lon="2.96979">
        <ele>983</ele>
        <time>2021-06-23T08:15:11Z</time>
      </trkpt>
      <trkpt lat="45.73903" lon="2.97047">
        <ele>980</ele>
        <time>2021-06-23T08:15:36Z</time>
      </trkpt>
      <trkpt lat="45.73877" lon="2.97132">
        <ele>976</ele>
        <time>2021-06-23T08:16:08Z</time>
      </trkpt>
      <trkpt lat="45.73852" lon="2.97223">
        <ele>973</ele>
        <time>2021-06-23T08:16:42Z</time>
      </trkpt>
      <trkpt lat="45.73845" lon="2.97244">
        <ele>973</ele>
        <time>2021-06-23T08:16:50Z</time>
      </trkpt>
      <trkpt lat="45.73834" lon="2.9731">
        <ele>972</ele>
        <time>2021-06-23T08:17:14Z</time>
      </trkpt>
      <trkpt lat="45.73834" lon="2.97333">
        <ele>972</ele>
        <time>2021-06-23T08:17:22Z</time>
      </trkpt>
      <trkpt lat="45.73846" lon="2.97377">
        <ele>973</ele>
        <time>2021-06-23T08:17:39Z</time>
      </trkpt>
      <trkpt lat="45.73854" lon="2.9741">
        <ele>973</ele>
        <time>2021-06-23T08:17:51Z</time>
      </trkpt>
      <trkpt lat="45.73865" lon="2.97473">
        <ele>976</ele>
        <time>2021-06-23T08:18:13Z</time>
      </trkpt>
      <trkpt lat="45.73861" lon="2.97536">
        <ele>980</ele>
        <time>2021-06-23T08:18:36Z</time>
      </trkpt>
      <trkpt lat="45.73863" lon="2.97615">
        <ele>984</ele>
        <time>2021-06-23T08:19:03Z</time>
      </trkpt>
      <trkpt lat="45.73867" lon="2.97677">
        <ele>987</ele>
        <time>2021-06-23T08:19:25Z</time>
      </trkpt>
      <trkpt lat="45.73862" lon="2.97749">
        <ele>991</ele>
        <time>2021-06-23T08:19:50Z</time>
      </trkpt>
      <trkpt lat="45.73854" lon="2.97857">
        <ele>997</ele>
        <time>2021-06-23T08:20:28Z</time>
      </trkpt>
      <trkpt lat="45.73843" lon="2.97948">
        <ele>1002</ele>
        <time>2021-06-23T08:21:00Z</time>
      </trkpt>
      <trkpt lat="45.73833" lon="2.98029">
        <ele>1005</ele>
        <time>2021-06-23T08:21:29Z</time>
      </trkpt>
      <trkpt lat="45.73827" lon="2.98124">
        <ele>1008</ele>
        <time>2021-06-23T08:22:02Z</time>
      </trkpt>
      <trkpt lat="45.73814" lon="2.98248">
        <ele>1009</ele>
        <time>2021-06-23T08:22:46Z</time>
      </trkpt>
      <trkpt lat="45.73802" lon="2.98323">
        <ele>1009</ele>
        <time>2021-06-23T08:23:13Z</time>
      </trkpt>
      <trkpt lat="45.73798" lon="2.98348">
        <ele>1009</ele>
        <time>2021-06-23T08:23:22Z</time>
      </trkpt>
      <trkpt lat="45.7378" lon="2.98405">
        <ele>1009</ele>
        <time>2021-06-23T08:23:44Z</time>
      </trkpt>
      <trkpt lat="45.73768" lon="2.98444">
        <ele>1008</ele>
        <time>2021-06-23T08:23:59Z</time>
      </trkpt>
      <trkpt lat="45.73745" lon="2.98513">
        <ele>1005</ele>
        <time>2021-06-23T08:24:25Z</time>
      </trkpt>
      <trkpt lat="45.73742" lon="2.98553">
        <ele>1004</ele>
        <time>2021-06-23T08:24:40Z</time>
      </trkpt>
      <trkpt lat="45.73742" lon="2.98593">
        <ele>1002</ele>
        <time>2021-06-23T08:24:53Z</time>
      </trkpt>
      <trkpt lat="45.73746" lon="2.98649">
        <ele>1000</ele>
        <time>2021-06-23T08:25:13Z</time>
      </trkpt>
      <trkpt lat="45.73751" lon="2.98706">
        <ele>998</ele>
        <time>2021-06-23T08:25:33Z</time>
      </trkpt>
      <trkpt lat="45.7376" lon="2.98789">
        <ele>996</ele>
        <time>2021-06-23T08:26:03Z</time>
      </trkpt>
      <trkpt lat="45.73762" lon="2.9881">
        <ele>995</ele>
        <time>2021-06-23T08:26:10Z</time>
      </trkpt>
      <trkpt lat="45.73733" lon="2.98817">
        <ele>998</ele>
        <time>2021-06-23T08:26:25Z</time>
      </trkpt>
      <trkpt lat="45.73718" lon="2.98822">
        <ele>999</ele>
        <time>2021-06-23T08:26:32Z</time>
      </trkpt>
      <trkpt lat="45.73691" lon="2.9881">
        <ele>1001</ele>
        <time>2021-06-23T08:26:47Z</time>
      </trkpt>
      <trkpt lat="45.73666" lon="2.98784">
        <ele>1004</ele>
        <time>2021-06-23T08:27:02Z</time>
      </trkpt>
      <trkpt lat="45.73657" lon="2.98824">
        <ele>1003</ele>
        <time>2021-06-23T08:27:17Z</time>
      </trkpt>
      <trkpt lat="45.73643" lon="2.9888">
        <ele>1003</ele>
        <time>2021-06-23T08:27:37Z</time>
      </trkpt>
      <trkpt lat="45.73633" lon="2.98917">
        <ele>1003</ele>
        <time>2021-06-23T08:27:51Z</time>
      </trkpt>
      <trkpt lat="45.7363" lon="2.98928">
        <ele>1003</ele>
        <time>2021-06-23T08:27:55Z</time>
      </trkpt>
      <trkpt lat="45.73605" lon="2.98995">
        <ele>1005</ele>
        <time>2021-06-23T08:28:22Z</time>
      </trkpt>
      <trkpt lat="45.73562" lon="2.9905">
        <ele>1006</ele>
        <time>2021-06-23T08:28:51Z</time>
      </trkpt>
      <trkpt lat="45.7352" lon="2.99135">
        <ele>1007</ele>
        <time>2021-06-23T08:29:27Z</time>
      </trkpt>
      <trkpt lat="45.73507" lon="2.99161">
        <ele>1007</ele>
        <time>2021-06-23T08:29:38Z</time>
      </trkpt>
      <trkpt lat="45.73482" lon="2.99241">
        <ele>1007</ele>
        <time>2021-06-23T08:30:09Z</time>
      </trkpt>
      <trkpt lat="45.73457" lon="2.99298">
        <ele>1007</ele>
        <time>2021-06-23T08:30:32Z</time>
      </trkpt>
      <trkpt lat="45.73445" lon="2.9933">
        <ele>1007</ele>
        <time>2021-06-23T08:30:45Z</time>
      </trkpt>
      <trkpt lat="45.73409" lon="2.99388">
        <ele>1004</ele>
        <time>2021-06-23T08:31:12Z</time>
      </trkpt>
      <trkpt lat="45.73385" lon="2.99429">
        <ele>1002</ele>
        <time>2021-06-23T08:31:31Z</time>
      </trkpt>
      <trkpt lat="45.73352" lon="2.99472">
        <ele>999</ele>
        <time>2021-06-23T08:31:53Z</time>
      </trkpt>
      <trkpt lat="45.73317" lon="2.99524">
        <ele>995</ele>
        <time>2021-06-23T08:32:19Z</time>
      </trkpt>
      <trkpt lat="45.733" lon="2.99549">
        <ele>994</ele>
        <time>2021-06-23T08:32:31Z</time>
      </trkpt>
      <trkpt lat="45.73263" lon="2.99599">
        <ele>991</ele>
        <time>2021-06-23T08:32:56Z</time>
      </trkpt>
      <trkpt lat="45.73213" lon="2.99665">
        <ele>987</ele>
        <time>2021-06-23T08:33:30Z</time>
      </trkpt>
      <trkpt lat="45.73188" lon="2.99683">
        <ele>986</ele>
        <time>2021-06-23T08:33:44Z</time>
      </trkpt>
      <trkpt lat="45.7318" lon="2.99696">
        <ele>986</ele>
        <time>2021-06-23T08:33:50Z</time>
      </trkpt>
      <trkpt lat="45.73165" lon="2.99715">
        <ele>985</ele>
        <time>2021-06-23T08:34:00Z</time>
      </trkpt>
      <trkpt lat="45.73139" lon="2.99765">
        <ele>982</ele>
        <time>2021-06-23T08:34:22Z</time>
      </trkpt>
      <trkpt lat="45.73115" lon="2.99812">
        <ele>981</ele>
        <time>2021-06-23T08:34:42Z</time>
      </trkpt>
      <trkpt lat="45.73092" lon="2.99875">
        <ele>979</ele>
        <time>2021-06-23T08:35:07Z</time>
      </trkpt>
      <trkpt lat="45.73064" lon="2.99956">
        <ele>978</ele>
        <time>2021-06-23T08:35:39Z</time>
      </trkpt>
      <trkpt lat="45.73045" lon="3.00029">
        <ele>977</ele>
        <time>2021-06-23T08:36:06Z</time>
      </trkpt>
      <trkpt lat="45.73041" lon="3.00047">
        <ele>977</ele>
        <time>2021-06-23T08:36:13Z</time>
      </trkpt>
      <trkpt lat="45.73036" lon="3.00078">
        <ele>976</ele>
        <time>2021-06-23T08:36:24Z</time>
      </trkpt>
      <trkpt lat="45.73045" lon="3.00104">
        <ele>973</ele>
        <time>2021-06-23T08:36:34Z</time>
      </trkpt>
      <trkpt lat="45.73049" lon="3.00131">
        <ele>971</ele>
        <time>2021-06-23T08:36:44Z</time>
      </trkpt>
      <trkpt lat="45.73033" lon="3.00187">
        <ele>968</ele>
        <time>2021-06-23T08:37:05Z</time>
      </trkpt>
      <trkpt lat="45.73021" lon="3.0023">
        <ele>964</ele>
        <time>2021-06-23T08:37:21Z</time>
      </trkpt>
      <trkpt lat="45.72995" lon="3.00292">
        <ele>960</ele>
        <time>2021-06-23T08:37:46Z</time>
      </trkpt>
      <trkpt lat="45.72963" lon="3.00364">
        <ele>955</ele>
        <time>2021-06-23T08:38:16Z</time>
      </trkpt>
      <trkpt lat="45.72941" lon="3.00412">
        <ele>950</ele>
        <time>2021-06-23T08:38:36Z</time>
      </trkpt>
      <trkpt lat="45.72919" lon="3.0046">
        <ele>945</ele>
        <time>2021-06-23T08:38:56Z</time>
      </trkpt>
      <trkpt lat="45.72897" lon="3.00481">
        <ele>942</ele>
        <time>2021-06-23T08:39:09Z</time>
      </trkpt>
      <trkpt lat="45.72877" lon="3.00495">
        <ele>940</ele>
        <time>2021-06-23T08:39:20Z</time>
      </trkpt>
      <trkpt lat="45.72852" lon="3.00514">
        <ele>937</ele>
        <time>2021-06-23T08:39:35Z</time>
      </trkpt>
      <trkpt lat="45.72834" lon="3.00515">
        <ele>937</ele>
        <time>2021-06-23T08:39:44Z</time>
      </trkpt>
      <trkpt lat="45.7283" lon="3.005">
        <ele>939</ele>
        <time>2021-06-23T08:39:49Z</time>
      </trkpt>
      <trkpt lat="45.72802" lon="3.00481">
        <ele>941</ele>
        <time>2021-06-23T08:40:05Z</time>
      </trkpt>
      <trkpt lat="45.72764" lon="3.00458">
        <ele>944</ele>
        <time>2021-06-23T08:40:25Z</time>
      </trkpt>
      <trkpt lat="45.72749" lon="3.00448">
        <ele>944</ele>
        <time>2021-06-23T08:40:34Z</time>
      </trkpt>
      <trkpt lat="45.7271" lon="3.0041">
        <ele>950</ele>
        <time>2021-06-23T08:40:57Z</time>
      </trkpt>
      <trkpt lat="45.72684" lon="3.00383">
        <ele>952</ele>
        <time>2021-06-23T08:41:13Z</time>
      </trkpt>
      <trkpt lat="45.72642" lon="3.0034">
        <ele>950</ele>
        <time>2021-06-23T08:41:39Z</time>
      </trkpt>
      <trkpt lat="45.72617" lon="3.00307">
        <ele>950</ele>
        <time>2021-06-23T08:41:56Z</time>
      </trkpt>
      <trkpt lat="45.72605" lon="3.00286">
        <ele>950</ele>
        <time>2021-06-23T08:42:06Z</time>
      </trkpt>
      <trkpt lat="45.72603" lon="3.00272">
        <ele>951</ele>
        <time>2021-06-23T08:42:11Z</time>
      </trkpt>
      <trkpt lat="45.72602" lon="3.00278">
        <ele>950</ele>
        <time>2021-06-23T08:42:13Z</time>
      </trkpt>
      <trkpt lat="45.72605" lon="3.00294">
        <ele>949</ele>
        <time>2021-06-23T08:42:19Z</time>
      </trkpt>
      <trkpt lat="45.72613" lon="3.00327">
        <ele>947</ele>
        <time>2021-06-23T08:42:31Z</time>
      </trkpt>
      <trkpt lat="45.72623" lon="3.00367">
        <ele>946</ele>
        <time>2021-06-23T08:42:46Z</time>
      </trkpt>
      <trkpt lat="45.72638" lon="3.00426">
        <ele>944</ele>
        <time>2021-06-23T08:43:08Z</time>
      </trkpt>
      <trkpt lat="45.72649" lon="3.00469">
        <ele>941</ele>
        <time>2021-06-23T08:43:24Z</time>
      </trkpt>
      <trkpt lat="45.72655" lon="3.00513">
        <ele>935</ele>
        <time>2021-06-23T08:43:39Z</time>
      </trkpt>
      <trkpt lat="45.72657" lon="3.00534">
        <ele>933</ele>
        <time>2021-06-23T08:43:47Z</time>
      </trkpt>
      <trkpt lat="45.72654" lon="3.00555">
        <ele>930</ele>
        <time>2021-06-23T08:43:54Z</time>
      </trkpt>
      <trkpt lat="45.7264" lon="3.00566">
        <ele>928</ele>
        <time>2021-06-23T08:44:02Z</time>
      </trkpt>
      <trkpt lat="45.72635" lon="3.00575">
        <ele>927</ele>
        <time>2021-06-23T08:44:06Z</time>
      </trkpt>
      <trkpt lat="45.7262" lon="3.006">
        <ele>925</ele>
        <time>2021-06-23T08:44:18Z</time>
      </trkpt>
      <trkpt lat="45.7261" lon="3.00643">
        <ele>923</ele>
        <time>2021-06-23T08:44:33Z</time>
      </trkpt>
      <trkpt lat="45.72598" lon="3.00695">
        <ele>920</ele>
        <time>2021-06-23T08:44:53Z</time>
      </trkpt>
      <trkpt lat="45.72589" lon="3.00733">
        <ele>919</ele>
        <time>2021-06-23T08:45:07Z</time>
      </trkpt>
      <trkpt lat="45.72578" lon="3.00775">
        <ele>917</ele>
        <time>2021-06-23T08:45:22Z</time>
      </trkpt>
      <trkpt lat="45.72565" lon="3.00816">
        <ele>914</ele>
        <time>2021-06-23T08:45:38Z</time>
      </trkpt>
      <trkpt lat="45.72554" lon="3.0085">
        <ele>913</ele>
        <time>2021-06-23T08:45:51Z</time>
      </trkpt>
      <trkpt lat="45.72544" lon="3.00895">
        <ele>912</ele>
        <time>2021-06-23T08:46:08Z</time>
      </trkpt>
      <trkpt lat="45.72539" lon="3.00924">
        <ele>911</ele>
        <time>2021-06-23T08:46:18Z</time>
      </trkpt>
      <trkpt lat="45.72535" lon="3.0095">
        <ele>909</ele>
        <time>2021-06-23T08:46:27Z</time>
      </trkpt>
      <trkpt lat="45.72543" lon="3.00959">
        <ele>909</ele>
        <time>2021-06-23T08:46:32Z</time>
      </trkpt>
      <trkpt lat="45.72533" lon="3.00997">
        <ele>907</ele>
        <time>2021-06-23T08:46:47Z</time>
      </trkpt>
      <trkpt lat="45.72525" lon="3.01025">
        <ele>906</ele>
        <time>2021-06-23T08:46:57Z</time>
      </trkpt>
      <trkpt lat="45.72515" lon="3.01058">
        <ele>904</ele>
        <time>2021-06-23T08:47:10Z</time>
      </trkpt>
      <trkpt lat="45.725" lon="3.01107">
        <ele>901</ele>
        <time>2021-06-23T08:47:28Z</time>
      </trkpt>
      <trkpt lat="45.72485" lon="3.0115">
        <ele>898</ele>
        <time>2021-06-23T08:47:45Z</time>
      </trkpt>
      <trkpt lat="45.72463" lon="3.0119">
        <ele>895</ele>
        <time>2021-06-23T08:48:03Z</time>
      </trkpt>
      <trkpt lat="45.72448" lon="3.01211">
        <ele>894</ele>
        <time>2021-06-23T08:48:13Z</time>
      </trkpt>
      <trkpt lat="45.72443" lon="3.01231">
        <ele>893</ele>
        <time>2021-06-23T08:48:21Z</time>
      </trkpt>
      <trkpt lat="45.72428" lon="3.0127">
        <ele>891</ele>
        <time>2021-06-23T08:48:36Z</time>
      </trkpt>
      <trkpt lat="45.72402" lon="3.01317">
        <ele>889</ele>
        <time>2021-06-23T08:48:57Z</time>
      </trkpt>
      <trkpt lat="45.72382" lon="3.01355">
        <ele>888</ele>
        <time>2021-06-23T08:49:14Z</time>
      </trkpt>
      <trkpt lat="45.72357" lon="3.01382">
        <ele>887</ele>
        <time>2021-06-23T08:49:30Z</time>
      </trkpt>
      <trkpt lat="45.7234" lon="3.01404">
        <ele>886</ele>
        <time>2021-06-23T08:49:41Z</time>
      </trkpt>
      <trkpt lat="45.72315" lon="3.01459">
        <ele>885</ele>
        <time>2021-06-23T08:50:04Z</time>
      </trkpt>
      <trkpt lat="45.72279" lon="3.01486">
        <ele>885</ele>
        <time>2021-06-23T08:50:24Z</time>
      </trkpt>
      <trkpt lat="45.7226" lon="3.0151">
        <ele>884</ele>
        <time>2021-06-23T08:50:37Z</time>
      </trkpt>
      <trkpt lat="45.72244" lon="3.01547">
        <ele>882</ele>
        <time>2021-06-23T08:50:52Z</time>
      </trkpt>
      <trkpt lat="45.72237" lon="3.01568">
        <ele>881</ele>
        <time>2021-06-23T08:51:00Z</time>
      </trkpt>
      <trkpt lat="45.72216" lon="3.01621">
        <ele>879</ele>
        <time>2021-06-23T08:51:22Z</time>
      </trkpt>
      <trkpt lat="45.72196" lon="3.01671">
        <ele>877</ele>
        <time>2021-06-23T08:51:42Z</time>
      </trkpt>
      <trkpt lat="45.72176" lon="3.01712">
        <ele>875</ele>
        <time>2021-06-23T08:51:59Z</time>
      </trkpt>
      <trkpt lat="45.72156" lon="3.01757">
        <ele>873</ele>
        <time>2021-06-23T08:52:18Z</time>
      </trkpt>
      <trkpt lat="45.72139" lon="3.01801">
        <ele>871</ele>
        <time>2021-06-23T08:52:36Z</time>
      </trkpt>
      <trkpt lat="45.72133" lon="3.01821">
        <ele>871</ele>
        <time>2021-06-23T08:52:43Z</time>
      </trkpt>
      <trkpt lat="45.72103" lon="3.01814">
        <ele>873</ele>
        <time>2021-06-23T08:52:58Z</time>
      </trkpt>
      <trkpt lat="45.72096" lon="3.01819">
        <ele>873</ele>
        <time>2021-06-23T08:53:02Z</time>
      </trkpt>
      <trkpt lat="45.7209" lon="3.01815">
        <ele>874</ele>
        <time>2021-06-23T08:53:06Z</time>
      </trkpt>
      <trkpt lat="45.72083" lon="3.01816">
        <ele>874</ele>
        <time>2021-06-23T08:53:09Z</time>
      </trkpt>
      <trkpt lat="45.72077" lon="3.0183">
        <ele>875</ele>
        <time>2021-06-23T08:53:15Z</time>
      </trkpt>
      <trkpt lat="45.72074" lon="3.01847">
        <ele>874</ele>
        <time>2021-06-23T08:53:21Z</time>
      </trkpt>
      <trkpt lat="45.72067" lon="3.01855">
        <ele>875</ele>
        <time>2021-06-23T08:53:25Z</time>
      </trkpt>
      <trkpt lat="45.72062" lon="3.01858">
        <ele>875</ele>
        <time>2021-06-23T08:53:28Z</time>
      </trkpt>
      <trkpt lat="45.72051" lon="3.01857">
        <ele>877</ele>
        <time>2021-06-23T08:53:34Z</time>
      </trkpt>
      <trkpt lat="45.72041" lon="3.01861">
        <ele>877</ele>
        <time>2021-06-23T08:53:39Z</time>
      </trkpt>
      <trkpt lat="45.72024" lon="3.01844">
        <ele>880</ele>
        <time>2021-06-23T08:53:49Z</time>
      </trkpt>
      <trkpt lat="45.72011" lon="3.01832">
        <ele>883</ele>
        <time>2021-06-23T08:53:57Z</time>
      </trkpt>
      <trkpt lat="45.72004" lon="3.01805">
        <ele>883</ele>
        <time>2021-06-23T08:54:07Z</time>
      </trkpt>
      <trkpt lat="45.72" lon="3.01769">
        <ele>883</ele>
        <time>2021-06-23T08:54:20Z</time>
      </trkpt>
      <trkpt lat="45.72001" lon="3.01744">
        <ele>883</ele>
        <time>2021-06-23T08:54:29Z</time>
      </trkpt>
      <trkpt lat="45.72007" lon="3.0172">
        <ele>882</ele>
        <time>2021-06-23T08:54:37Z</time>
      </trkpt>
      <trkpt lat="45.72013" lon="3.01683">
        <ele>881</ele>
        <time>2021-06-23T08:54:51Z</time>
      </trkpt>
      <trkpt lat="45.72014" lon="3.01644">
        <ele>881</ele>
        <time>2021-06-23T08:55:04Z</time>
      </trkpt>
      <trkpt lat="45.72014" lon="3.01616">
        <ele>882</ele>
        <time>2021-06-23T08:55:14Z</time>
      </trkpt>
      <trkpt lat="45.72012" lon="3.01604">
        <ele>882</ele>
        <time>2021-06-23T08:55:18Z</time>
      </trkpt>
      <trkpt lat="45.72001" lon="3.01608">
        <ele>882</ele>
        <time>2021-06-23T08:55:24Z</time>
      </trkpt>
      <trkpt lat="45.71981" lon="3.01612">
        <ele>883</ele>
        <time>2021-06-23T08:55:34Z</time>
      </trkpt>
      <trkpt lat="45.71967" lon="3.01606">
        <ele>883</ele>
        <time>2021-06-23T08:55:42Z</time>
      </trkpt>
      <trkpt lat="45.71956" lon="3.01591">
        <ele>884</ele>
        <time>2021-06-23T08:55:49Z</time>
      </trkpt>
      <trkpt lat="45.71938" lon="3.0159">
        <ele>884</ele>
        <time>2021-06-23T08:55:58Z</time>
      </trkpt>
      <trkpt lat="45.7193" lon="3.01587">
        <ele>885</ele>
        <time>2021-06-23T08:56:02Z</time>
      </trkpt>
      <trkpt lat="45.71932" lon="3.01569">
        <ele>885</ele>
        <time>2021-06-23T08:56:09Z</time>
      </trkpt>
      <trkpt lat="45.71934" lon="3.01544">
        <ele>885</ele>
        <time>2021-06-23T08:56:17Z</time>
      </trkpt>
      <trkpt lat="45.71934" lon="3.01519">
        <ele>886</ele>
        <time>2021-06-23T08:56:26Z</time>
      </trkpt>
      <trkpt lat="45.71933" lon="3.01487">
        <ele>886</ele>
        <time>2021-06-23T08:56:37Z</time>
      </trkpt>
      <trkpt lat="45.71933" lon="3.01452">
        <ele>887</ele>
        <time>2021-06-23T08:56:50Z</time>
      </trkpt>
      <trkpt lat="45.7193" lon="3.01426">
        <ele>887</ele>
        <time>2021-06-23T08:56:59Z</time>
      </trkpt>
      <trkpt lat="45.71928" lon="3.0142">
        <ele>888</ele>
        <time>2021-06-23T08:57:01Z</time>
      </trkpt>
      <trkpt lat="45.71947" lon="3.01402">
        <ele>888</ele>
        <time>2021-06-23T08:57:13Z</time>
      </trkpt>
      <trkpt lat="45.71961" lon="3.01389">
        <ele>888</ele>
        <time>2021-06-23T08:57:21Z</time>
      </trkpt>
      <trkpt lat="45.71973" lon="3.01384">
        <ele>887</ele>
        <time>2021-06-23T08:57:27Z</time>
      </trkpt>
      <trkpt lat="45.71986" lon="3.01386">
        <ele>887</ele>
        <time>2021-06-23T08:57:34Z</time>
      </trkpt>
      <trkpt lat="45.71995" lon="3.01394">
        <ele>887</ele>
        <time>2021-06-23T08:57:39Z</time>
      </trkpt>
      <trkpt lat="45.72009" lon="3.014">
        <ele>886</ele>
        <time>2021-06-23T08:57:46Z</time>
      </trkpt>
      <trkpt lat="45.7202" lon="3.01407">
        <ele>886</ele>
        <time>2021-06-23T08:57:52Z</time>
      </trkpt>
      <trkpt lat="45.72031" lon="3.01413">
        <ele>886</ele>
        <time>2021-06-23T08:57:58Z</time>
      </trkpt>
      <trkpt lat="45.72036" lon="3.01418">
        <ele>886</ele>
        <time>2021-06-23T08:58:01Z</time>
      </trkpt>
    </trkseg>
  </trk>
</gpx>